sensor_id;sensor_type;location;lat;lon;timestamp;pressure;altitude;pressure_sealevel;temperature;humidity
71567;BME280;59403;47.456;19.120;2023-12-04T00:02:22;101205.75;;;-3.68;100.00
71567;BME280;59403;47.456;19.120;2023-12-04T00:04:49;101209.63;;;-3.81;100.00
71567;BME280;59403;47.456;19.120;2023-12-04T00:07:16;101209.41;;;-3.75;100.00
71567;BME280;59403;47.456;19.120;2023-12-04T00:09:42;101210.22;;;-3.73;100.00
71567;BME280;59403;47.456;19.120;2023-12-04T00:12:09;101213.56;;;-3.69;100.00
71567;BME280;59403;47.456;19.120;2023-12-04T00:14:37;101212.69;;;-3.70;100.00
71567;BME280;59403;47.456;19.120;2023-12-04T00:17:03;101208.44;;;-3.71;100.00
71567;BME280;59403;47.456;19.120;2023-12-04T00:19:31;101220.41;;;-3.67;100.00
71567;BME280;59403;47.456;19.120;2023-12-04T00:21:58;101217.88;;;-3.70;100.00
71567;BME280;59403;47.456;19.120;2023-12-04T00:24:25;101213.78;;;-3.77;100.00
71567;BME280;59403;47.456;19.120;2023-12-04T00:26:52;101212.16;;;-3.79;100.00
71567;BME280;59403;47.456;19.120;2023-12-04T00:29:19;101207.06;;;-3.82;100.00
71567;BME280;59403;47.456;19.120;2023-12-04T00:31:46;101213.03;;;-3.80;100.00
71567;BME280;59403;47.456;19.120;2023-12-04T00:34:12;101207.09;;;-3.84;100.00
71567;BME280;59403;47.456;19.120;2023-12-04T00:36:41;101208.12;;;-3.88;100.00
71567;BME280;59403;47.456;19.120;2023-12-04T00:39:08;101212.47;;;-3.90;100.00
71567;BME280;59403;47.456;19.120;2023-12-04T00:41:35;101215.16;;;-3.93;100.00
71567;BME280;59403;47.456;19.120;2023-12-04T00:44:01;101209.13;;;-3.93;100.00
71567;BME280;59403;47.456;19.120;2023-12-04T00:46:28;101209.19;;;-3.95;100.00
71567;BME280;59403;47.456;19.120;2023-12-04T00:48:55;101212.66;;;-3.96;100.00
71567;BME280;59403;47.456;19.120;2023-12-04T00:51:22;101218.84;;;-4.01;100.00
71567;BME280;59403;47.456;19.120;2023-12-04T00:53:50;101220.59;;;-4.02;100.00
71567;BME280;59403;47.456;19.120;2023-12-04T00:56:17;101216.41;;;-4.06;100.00
71567;BME280;59403;47.456;19.120;2023-12-04T00:58:46;101215.59;;;-4.08;100.00
71567;BME280;59403;47.456;19.120;2023-12-04T01:01:12;101219.03;;;-4.07;100.00
71567;BME280;59403;47.456;19.120;2023-12-04T01:03:39;101214.78;;;-4.10;100.00
71567;BME280;59403;47.456;19.120;2023-12-04T01:06:07;101219.19;;;-4.12;100.00
71567;BME280;59403;47.456;19.120;2023-12-04T01:08:34;101211.44;;;-4.12;100.00
71567;BME280;59403;47.456;19.120;2023-12-04T01:11:02;101208.09;;;-4.17;100.00
71567;BME280;59403;47.456;19.120;2023-12-04T01:13:29;101210.53;;;-4.11;100.00
71567;BME280;59403;47.456;19.120;2023-12-04T01:15:56;101209.72;;;-4.13;100.00
71567;BME280;59403;47.456;19.120;2023-12-04T01:18:23;101210.88;;;-4.23;100.00
71567;BME280;59403;47.456;19.120;2023-12-04T01:20:49;101212.50;;;-4.19;100.00
71567;BME280;59403;47.456;19.120;2023-12-04T01:23:16;101209.87;;;-4.17;100.00
71567;BME280;59403;47.456;19.120;2023-12-04T01:25:43;101206.37;;;-4.16;100.00
71567;BME280;59403;47.456;19.120;2023-12-04T01:28:12;101209.78;;;-4.14;100.00
71567;BME280;59403;47.456;19.120;2023-12-04T01:30:39;101212.50;;;-4.19;100.00
71567;BME280;59403;47.456;19.120;2023-12-04T01:33:07;101218.59;;;-4.21;100.00
71567;BME280;59403;47.456;19.120;2023-12-04T01:35:34;101225.53;;;-4.23;100.00
71567;BME280;59403;47.456;19.120;2023-12-04T01:38:00;101225.59;;;-4.25;100.00
71567;BME280;59403;47.456;19.120;2023-12-04T01:40:27;101223.91;;;-4.26;100.00
71567;BME280;59403;47.456;19.120;2023-12-04T01:42:54;101222.50;;;-4.37;100.00
71567;BME280;59403;47.456;19.120;2023-12-04T01:45:23;101231.91;;;-4.35;100.00
71567;BME280;59403;47.456;19.120;2023-12-04T01:47:49;101230.97;;;-4.32;100.00
71567;BME280;59403;47.456;19.120;2023-12-04T01:50:17;101230.06;;;-4.30;100.00
71567;BME280;59403;47.456;19.120;2023-12-04T01:52:44;101230.09;;;-4.31;100.00
71567;BME280;59403;47.456;19.120;2023-12-04T01:55:12;101224.78;;;-4.27;100.00
71567;BME280;59403;47.456;19.120;2023-12-04T01:57:39;101225.62;;;-4.26;100.00
71567;BME280;59403;47.456;19.120;2023-12-04T02:00:07;101238.62;;;-4.28;100.00
71567;BME280;59403;47.456;19.120;2023-12-04T02:05:21;101235.88;;;-4.23;100.00
71567;BME280;59403;47.456;19.120;2023-12-04T02:07:49;101233.41;;;-4.26;100.00
71567;BME280;59403;47.456;19.120;2023-12-04T02:10:16;101239.31;;;-4.23;100.00
71567;BME280;59403;47.456;19.120;2023-12-04T02:12:43;101238.47;;;-4.23;100.00
71567;BME280;59403;47.456;19.120;2023-12-04T02:15:10;101229.84;;;-4.24;100.00
71567;BME280;59403;47.456;19.120;2023-12-04T02:17:37;101231.72;;;-4.29;100.00
71567;BME280;59403;47.456;19.120;2023-12-04T02:20:07;101232.69;;;-4.31;100.00
71567;BME280;59403;47.456;19.120;2023-12-04T02:22:37;101236.03;;;-4.28;100.00
71567;BME280;59403;47.456;19.120;2023-12-04T02:25:06;101236.03;;;-4.28;100.00
71567;BME280;59403;47.456;19.120;2023-12-04T02:27:38;101234.50;;;-4.35;100.00
71567;BME280;59403;47.456;19.120;2023-12-04T02:30:10;101246.66;;;-4.38;100.00
71567;BME280;59403;47.456;19.120;2023-12-04T02:32:44;101239.78;;;-4.38;100.00
71567;BME280;59403;47.456;19.120;2023-12-04T02:35:14;101239.88;;;-4.42;100.00
71567;BME280;59403;47.456;19.120;2023-12-04T02:37:42;101239.22;;;-4.49;100.00
71567;BME280;59403;47.456;19.120;2023-12-04T02:40:11;101231.66;;;-4.56;100.00
71567;BME280;59403;47.456;19.120;2023-12-04T02:42:39;101234.34;;;-4.59;100.00
71567;BME280;59403;47.456;19.120;2023-12-04T02:45:07;101235.09;;;-4.56;100.00
71567;BME280;59403;47.456;19.120;2023-12-04T02:47:34;101231.72;;;-4.58;100.00
71567;BME280;59403;47.456;19.120;2023-12-04T02:50:02;101236.81;;;-4.56;100.00
71567;BME280;59403;47.456;19.120;2023-12-04T02:52:29;101234.97;;;-4.51;100.00
71567;BME280;59403;47.456;19.120;2023-12-04T02:54:55;101240.94;;;-4.49;100.00
71567;BME280;59403;47.456;19.120;2023-12-04T02:57:24;101239.31;;;-4.52;100.00
71567;BME280;59403;47.456;19.120;2023-12-04T02:59:50;101245.34;;;-4.53;100.00
71567;BME280;59403;47.456;19.120;2023-12-04T03:02:17;101241.94;;;-4.55;100.00
71567;BME280;59403;47.456;19.120;2023-12-04T03:04:45;101245.69;;;-4.65;100.00
71567;BME280;59403;47.456;19.120;2023-12-04T03:07:12;101243.00;;;-4.62;100.00
71567;BME280;59403;47.456;19.120;2023-12-04T03:09:41;101244.00;;;-4.66;100.00
71567;BME280;59403;47.456;19.120;2023-12-04T03:12:08;101247.41;;;-4.66;100.00
71567;BME280;59403;47.456;19.120;2023-12-04T03:14:37;101249.22;;;-4.68;100.00
71567;BME280;59403;47.456;19.120;2023-12-04T03:17:03;101256.28;;;-4.76;100.00
71567;BME280;59403;47.456;19.120;2023-12-04T03:19:30;101246.81;;;-4.75;100.00
71567;BME280;59403;47.456;19.120;2023-12-04T03:21:57;101249.34;;;-4.74;100.00
71567;BME280;59403;47.456;19.120;2023-12-04T03:24:24;101251.84;;;-4.71;100.00
71567;BME280;59403;47.456;19.120;2023-12-04T03:26:51;101248.47;;;-4.73;100.00
71567;BME280;59403;47.456;19.120;2023-12-04T03:29:18;101252.84;;;-4.75;100.00
71567;BME280;59403;47.456;19.120;2023-12-04T03:31:46;101258.81;;;-4.73;100.00
71567;BME280;59403;47.456;19.120;2023-12-04T03:34:14;101257.16;;;-4.75;100.00
71567;BME280;59403;47.456;19.120;2023-12-04T03:36:41;101254.72;;;-4.81;100.00
71567;BME280;59403;47.456;19.120;2023-12-04T03:39:07;101266.81;;;-4.82;100.00
71567;BME280;59403;47.456;19.120;2023-12-04T03:41:34;101254.78;;;-4.84;100.00
71567;BME280;59403;47.456;19.120;2023-12-04T03:44:01;101264.34;;;-4.88;100.00
71567;BME280;59403;47.456;19.120;2023-12-04T03:46:28;101262.69;;;-4.89;100.00
71567;BME280;59403;47.456;19.120;2023-12-04T03:48:56;101262.59;;;-4.86;100.00
71567;BME280;59403;47.456;19.120;2023-12-04T03:51:23;101261.53;;;-4.79;100.00
71567;BME280;59403;47.456;19.120;2023-12-04T03:53:50;101264.22;;;-4.82;100.00
71567;BME280;59403;47.456;19.120;2023-12-04T03:56:17;101273.69;;;-4.82;100.00
71567;BME280;59403;47.456;19.120;2023-12-04T03:58:44;101279.78;;;-4.85;100.00
71567;BME280;59403;47.456;19.120;2023-12-04T04:01:10;101269.44;;;-4.85;100.00
71567;BME280;59403;47.456;19.120;2023-12-04T04:03:38;101260.00;;;-4.86;100.00
71567;BME280;59403;47.456;19.120;2023-12-04T04:06:07;101248.94;;;-4.91;100.00
71567;BME280;59403;47.456;19.120;2023-12-04T04:08:34;101243.75;;;-4.89;100.00
71567;BME280;59403;47.456;19.120;2023-12-04T04:11:00;101247.41;;;-4.98;100.00
71567;BME280;59403;47.456;19.120;2023-12-04T04:13:27;101250.37;;;-5.13;100.00
71567;BME280;59403;47.456;19.120;2023-12-04T04:15:54;101242.69;;;-5.14;100.00
71567;BME280;59403;47.456;19.120;2023-12-04T04:18:21;101247.81;;;-5.13;100.00
71567;BME280;59403;47.456;19.120;2023-12-04T04:20:48;101254.47;;;-5.04;100.00
71567;BME280;59403;47.456;19.120;2023-12-04T04:23:16;101249.19;;;-5.00;100.00
71567;BME280;59403;47.456;19.120;2023-12-04T04:25:43;101247.50;;;-5.01;100.00
71567;BME280;59403;47.456;19.120;2023-12-04T04:28:10;101244.00;;;-5.00;100.00
71567;BME280;59403;47.456;19.120;2023-12-04T04:30:37;101239.81;;;-5.04;100.00
71567;BME280;59403;47.456;19.120;2023-12-04T04:33:05;101241.53;;;-5.03;100.00
71567;BME280;59403;47.456;19.120;2023-12-04T04:35:32;101235.59;;;-5.06;100.00
71567;BME280;59403;47.456;19.120;2023-12-04T04:37:59;101242.28;;;-4.99;100.00
71567;BME280;59403;47.456;19.120;2023-12-04T04:40:27;101254.37;;;-5.01;100.00
71567;BME280;59403;47.456;19.120;2023-12-04T04:42:54;101252.72;;;-5.02;100.00
71567;BME280;59403;47.456;19.120;2023-12-04T04:45:21;101252.88;;;-5.10;100.00
71567;BME280;59403;47.456;19.120;2023-12-04T04:47:48;101252.06;;;-5.12;100.00
71567;BME280;59403;47.456;19.120;2023-12-04T04:50:15;101256.12;;;-5.02;100.00
71567;BME280;59403;47.456;19.120;2023-12-04T04:52:41;101251.94;;;-5.06;100.00
71567;BME280;59403;47.456;19.120;2023-12-04T04:55:08;101251.94;;;-5.06;100.00
71567;BME280;59403;47.456;19.120;2023-12-04T04:57:37;101255.56;;;-5.13;100.00
71567;BME280;59403;47.456;19.120;2023-12-04T05:00:04;101252.19;;;-5.16;100.00
71567;BME280;59403;47.456;19.120;2023-12-04T05:02:32;101258.03;;;-5.10;100.00
71567;BME280;59403;47.456;19.120;2023-12-04T05:05:02;101249.66;;;-5.18;100.00
71567;BME280;59403;47.456;19.120;2023-12-04T05:07:29;101264.16;;;-5.14;100.00
71567;BME280;59403;47.456;19.120;2023-12-04T05:09:56;101265.03;;;-5.13;100.00
71567;BME280;59403;47.456;19.120;2023-12-04T05:12:23;101268.25;;;-5.05;100.00
71567;BME280;59403;47.456;19.120;2023-12-04T05:14:51;101266.47;;;-5.03;100.00
71567;BME280;59403;47.456;19.120;2023-12-04T05:17:18;101264.13;;;-5.12;100.00
71567;BME280;59403;47.456;19.120;2023-12-04T05:19:45;101263.25;;;-5.11;100.00
71567;BME280;59403;47.456;19.120;2023-12-04T05:22:12;101264.84;;;-5.07;100.00
71567;BME280;59403;47.456;19.120;2023-12-04T05:24:38;101268.22;;;-5.04;100.00
71567;BME280;59403;47.456;19.120;2023-12-04T05:27:05;101270.84;;;-5.05;100.00
71567;BME280;59403;47.456;19.120;2023-12-04T05:29:32;101263.09;;;-5.05;100.00
71567;BME280;59403;47.456;19.120;2023-12-04T05:32:00;101269.19;;;-5.08;100.00
71567;BME280;59403;47.456;19.120;2023-12-04T05:34:27;101267.44;;;-5.06;100.00
71567;BME280;59403;47.456;19.120;2023-12-04T05:36:55;101266.81;;;-5.17;100.00
71567;BME280;59403;47.456;19.120;2023-12-04T05:39:21;101269.41;;;-5.17;100.00
71567;BME280;59403;47.456;19.120;2023-12-04T05:41:48;101273.72;;;-5.17;100.00
71567;BME280;59403;47.456;19.120;2023-12-04T05:44:15;101266.94;;;-5.21;100.00
71567;BME280;59403;47.456;19.120;2023-12-04T05:46:42;101268.72;;;-5.23;100.00
71567;BME280;59403;47.456;19.120;2023-12-04T05:49:10;101267.72;;;-5.19;100.00
71567;BME280;59403;47.456;19.120;2023-12-04T05:51:37;101272.84;;;-5.16;100.00
71567;BME280;59403;47.456;19.120;2023-12-04T05:54:04;101269.59;;;-5.24;100.00
71567;BME280;59403;47.456;19.120;2023-12-04T05:56:31;101270.41;;;-5.22;100.00
71567;BME280;59403;47.456;19.120;2023-12-04T05:58:58;101280.87;;;-5.28;100.00
71567;BME280;59403;47.456;19.120;2023-12-04T06:01:25;101278.25;;;-5.27;100.00
71567;BME280;59403;47.456;19.120;2023-12-04T06:03:52;101279.91;;;-5.24;100.00
71567;BME280;59403;47.456;19.120;2023-12-04T06:06:20;101279.03;;;-5.23;100.00
71567;BME280;59403;47.456;19.120;2023-12-04T06:08:47;101276.47;;;-5.23;100.00
71567;BME280;59403;47.456;19.120;2023-12-04T06:11:14;101278.97;;;-5.20;100.00
71567;BME280;59403;47.456;19.120;2023-12-04T06:13:41;101278.91;;;-5.19;100.00
71567;BME280;59403;47.456;19.120;2023-12-04T06:16:09;101274.69;;;-5.21;100.00
71567;BME280;59403;47.456;19.120;2023-12-04T06:18:36;101277.28;;;-5.21;100.00
71567;BME280;59403;47.456;19.120;2023-12-04T06:21:03;101286.66;;;-5.19;100.00
71567;BME280;59403;47.456;19.120;2023-12-04T06:23:32;101284.94;;;-5.18;100.00
71567;BME280;59403;47.456;19.120;2023-12-04T06:26:00;101287.56;;;-5.20;100.00
71567;BME280;59403;47.456;19.120;2023-12-04T06:28:27;101284.00;;;-5.16;100.00
71567;BME280;59403;47.456;19.120;2023-12-04T06:30:54;101284.13;;;-5.20;100.00
71567;BME280;59403;47.456;19.120;2023-12-04T06:33:25;101280.59;;;-5.16;100.00
71567;BME280;59403;47.456;19.120;2023-12-04T06:35:52;101287.41;;;-5.14;100.00
71567;BME280;59403;47.456;19.120;2023-12-04T06:38:24;101298.53;;;-5.12;100.00
71567;BME280;59403;47.456;19.120;2023-12-04T06:40:53;101295.13;;;-5.14;100.00
71567;BME280;59403;47.456;19.120;2023-12-04T06:43:20;101299.53;;;-5.17;100.00
71567;BME280;59403;47.456;19.120;2023-12-04T06:45:48;101293.53;;;-5.18;100.00
71567;BME280;59403;47.456;19.120;2023-12-04T06:48:16;101304.59;;;-5.13;100.00
71567;BME280;59403;47.456;19.120;2023-12-04T06:50:43;101307.91;;;-5.08;100.00
71567;BME280;59403;47.456;19.120;2023-12-04T06:53:10;101307.09;;;-5.10;100.00
71567;BME280;59403;47.456;19.120;2023-12-04T06:55:37;101303.56;;;-5.07;100.00
71567;BME280;59403;47.456;19.120;2023-12-04T06:58:05;101303.44;;;-5.01;100.00
71567;BME280;59403;47.456;19.120;2023-12-04T07:00:32;101300.69;;;-4.94;100.00
71567;BME280;59403;47.456;19.120;2023-12-04T07:02:59;101300.69;;;-4.94;100.00
71567;BME280;59403;47.456;19.120;2023-12-04T07:05:25;101302.38;;;-4.93;100.00
71567;BME280;59403;47.456;19.120;2023-12-04T07:07:52;101306.62;;;-4.92;100.00
71567;BME280;59403;47.456;19.120;2023-12-04T07:10:19;101308.22;;;-4.86;100.00
71567;BME280;59403;47.456;19.120;2023-12-04T07:12:46;101312.53;;;-4.85;100.00
71567;BME280;59403;47.456;19.120;2023-12-04T07:15:14;101317.69;;;-4.85;100.00
71567;BME280;59403;47.456;19.120;2023-12-04T07:17:42;101309.97;;;-4.87;100.00
71567;BME280;59403;47.456;19.120;2023-12-04T07:20:10;101322.84;;;-4.85;100.00
71567;BME280;59403;47.456;19.120;2023-12-04T07:22:38;101312.31;;;-4.78;100.00
71567;BME280;59403;47.456;19.120;2023-12-04T07:25:05;101317.47;;;-4.76;100.00
71567;BME280;59403;47.456;19.120;2023-12-04T07:27:33;101300.94;;;-4.71;100.00
71567;BME280;59403;47.456;19.120;2023-12-04T07:30:00;101306.88;;;-4.67;100.00
71567;BME280;59403;47.456;19.120;2023-12-04T07:32:29;101310.25;;;-4.65;100.00
71567;BME280;59403;47.456;19.120;2023-12-04T07:34:58;101316.38;;;-4.69;100.00
71567;BME280;59403;47.456;19.120;2023-12-04T07:37:25;101321.31;;;-4.60;100.00
71567;BME280;59403;47.456;19.120;2023-12-04T07:39:52;101317.84;;;-4.57;100.00
71567;BME280;59403;47.456;19.120;2023-12-04T07:42:20;101325.63;;;-4.59;100.00
71567;BME280;59403;47.456;19.120;2023-12-04T07:44:46;101323.69;;;-4.51;100.00
71567;BME280;59403;47.456;19.120;2023-12-04T07:47:13;101319.47;;;-4.53;100.00
71567;BME280;59403;47.456;19.120;2023-12-04T07:49:44;101320.12;;;-4.47;100.00
71567;BME280;59403;47.456;19.120;2023-12-04T07:52:11;101321.63;;;-4.38;100.00
71567;BME280;59403;47.456;19.120;2023-12-04T07:54:39;101323.25;;;-4.34;100.00
71567;BME280;59403;47.456;19.120;2023-12-04T07:57:05;101323.06;;;-4.28;100.00
71567;BME280;59403;47.456;19.120;2023-12-04T07:59:32;101328.28;;;-4.30;100.00
71567;BME280;59403;47.456;19.120;2023-12-04T08:02:00;101333.22;;;-4.21;100.00
71567;BME280;59403;47.456;19.120;2023-12-04T08:04:27;101330.62;;;-4.21;100.00
71567;BME280;59403;47.456;19.120;2023-12-04T08:06:55;101332.97;;;-4.12;100.00
71567;BME280;59403;47.456;19.120;2023-12-04T08:09:21;101328.47;;;-4.05;100.00
71567;BME280;59403;47.456;19.120;2023-12-04T08:11:48;101326.59;;;-4.00;100.00
71567;BME280;59403;47.456;19.120;2023-12-04T08:14:15;101321.25;;;-3.94;100.00
71567;BME280;59403;47.456;19.120;2023-12-04T08:16:42;101324.56;;;-3.89;100.00
71567;BME280;59403;47.456;19.120;2023-12-04T08:19:09;101330.41;;;-3.83;100.00
71567;BME280;59403;47.456;19.120;2023-12-04T08:21:37;101324.28;;;-3.80;100.00
71567;BME280;59403;47.456;19.120;2023-12-04T08:24:05;101332.00;;;-3.79;100.00
71567;BME280;59403;47.456;19.120;2023-12-04T08:26:32;101332.69;;;-3.72;100.00
71567;BME280;59403;47.456;19.120;2023-12-04T08:28:59;101336.69;;;-3.62;100.00
71567;BME280;59403;47.456;19.120;2023-12-04T08:31:26;101334.75;;;-3.56;100.00
71567;BME280;59403;47.456;19.120;2023-12-04T08:33:53;101344.94;;;-3.50;100.00
71567;BME280;59403;47.456;19.120;2023-12-04T08:36:20;101340.59;;;-3.47;100.00
71567;BME280;59403;47.456;19.120;2023-12-04T08:38:47;101335.22;;;-3.41;100.00
71567;BME280;59403;47.456;19.120;2023-12-04T08:41:15;101337.69;;;-3.38;100.00
71567;BME280;59403;47.456;19.120;2023-12-04T08:43:42;101340.00;;;-3.29;100.00
71567;BME280;59403;47.456;19.120;2023-12-04T08:46:12;101334.59;;;-3.22;100.00
71567;BME280;59403;47.456;19.120;2023-12-04T08:48:39;101333.59;;;-3.18;100.00
71567;BME280;59403;47.456;19.120;2023-12-04T08:51:07;101339.53;;;-3.14;100.00
71567;BME280;59403;47.456;19.120;2023-12-04T08:53:34;101332.44;;;-3.08;100.00
71567;BME280;59403;47.456;19.120;2023-12-04T08:56:01;101335.63;;;-3.00;100.00
71567;BME280;59403;47.456;19.120;2023-12-04T08:58:29;101336.13;;;-2.89;100.00
71567;BME280;59403;47.456;19.120;2023-12-04T09:00:56;101331.66;;;-2.84;100.00
71567;BME280;59403;47.456;19.120;2023-12-04T09:03:23;101333.81;;;-2.72;100.00
71567;BME280;59403;47.456;19.120;2023-12-04T09:05:50;101336.06;;;-2.61;100.00
71567;BME280;59403;47.456;19.120;2023-12-04T09:08:17;101325.91;;;-2.43;100.00
71567;BME280;59403;47.456;19.120;2023-12-04T09:10:45;101331.72;;;-2.36;100.00
71567;BME280;59403;47.456;19.120;2023-12-04T09:13:13;101332.16;;;-2.23;100.00
71567;BME280;59403;47.456;19.120;2023-12-04T09:15:41;101331.94;;;-2.17;100.00
71567;BME280;59403;47.456;19.120;2023-12-04T09:18:08;101332.88;;;-2.20;100.00
71567;BME280;59403;47.456;19.120;2023-12-04T09:20:35;101338.87;;;-2.18;100.00
71567;BME280;59403;47.456;19.120;2023-12-04T09:23:02;101340.34;;;-2.11;100.00
71567;BME280;59403;47.456;19.120;2023-12-04T09:25:29;101336.03;;;-2.10;100.00
71567;BME280;59403;47.456;19.120;2023-12-04T09:27:56;101333.44;;;-2.10;100.00
71567;BME280;59403;47.456;19.120;2023-12-04T09:30:23;101337.81;;;-2.12;100.00
71567;BME280;59403;47.456;19.120;2023-12-04T09:32:51;101336.78;;;-2.08;100.00
71567;BME280;59403;47.456;19.120;2023-12-04T09:35:21;101335.91;;;-2.07;100.00
71567;BME280;59403;47.456;19.120;2023-12-04T09:37:48;101333.78;;;-1.96;100.00
71567;BME280;59403;47.456;19.120;2023-12-04T09:40:16;101316.25;;;-1.90;100.00
71567;BME280;59403;47.456;19.120;2023-12-04T09:42:43;101306.66;;;-1.88;100.00
71567;BME280;59403;47.456;19.120;2023-12-04T09:45:11;101302.19;;;-1.84;100.00
71567;BME280;59403;47.456;19.120;2023-12-04T09:47:39;101299.47;;;-1.81;100.00
71567;BME280;59403;47.456;19.120;2023-12-04T09:50:08;101297.38;;;-1.72;100.00
71567;BME280;59403;47.456;19.120;2023-12-04T09:52:36;101291.75;;;-1.61;100.00
71567;BME280;59403;47.456;19.120;2023-12-04T09:55:04;101289.91;;;-1.58;100.00
71567;BME280;59403;47.456;19.120;2023-12-04T09:57:32;101265.94;;;-1.64;100.00
71567;BME280;59403;47.456;19.120;2023-12-04T10:00:01;101279.28;;;-1.52;100.00
71567;BME280;59403;47.456;19.120;2023-12-04T10:02:29;101279.16;;;-1.49;100.00
71567;BME280;59403;47.456;19.120;2023-12-04T10:04:57;101276.50;;;-1.47;99.52
71567;BME280;59403;47.456;19.120;2023-12-04T10:07:26;101268.72;;;-1.47;100.00
71567;BME280;59403;47.456;19.120;2023-12-04T10:09:53;101271.97;;;-1.42;100.00
71567;BME280;59403;47.456;19.120;2023-12-04T10:12:20;101267.44;;;-1.37;100.00
71567;BME280;59403;47.456;19.120;2023-12-04T10:15:03;101263.09;;;-1.37;99.24
71567;BME280;59403;47.456;19.120;2023-12-04T10:17:34;101255.16;;;-1.34;98.96
71567;BME280;59403;47.456;19.120;2023-12-04T10:20:07;101250.66;;;-1.29;97.85
71567;BME280;59403;47.456;19.120;2023-12-04T10:22:39;101246.44;;;-1.31;98.12
71567;BME280;59403;47.456;19.120;2023-12-04T10:25:24;101247.69;;;-1.20;97.91
71567;BME280;59403;47.456;19.120;2023-12-04T10:27:53;101241.47;;;-1.16;98.09
71567;BME280;59403;47.456;19.120;2023-12-04T10:30:25;101236.19;;;-1.14;98.25
71567;BME280;59403;47.456;19.120;2023-12-04T10:32:56;101224.78;;;-1.10;98.01
71567;BME280;59403;47.456;19.120;2023-12-04T10:35:28;101228.88;;;-1.04;98.40
71567;BME280;59403;47.456;19.120;2023-12-04T10:37:57;101221.72;;;-0.99;97.66
71567;BME280;59403;47.456;19.120;2023-12-04T10:40:26;101211.25;;;-0.98;97.82
71567;BME280;59403;47.456;19.120;2023-12-04T10:43:14;101215.53;;;-0.97;98.06
71567;BME280;59403;47.456;19.120;2023-12-04T10:45:43;101211.19;;;-0.96;95.53
71567;BME280;59403;47.456;19.120;2023-12-04T10:48:13;101210.03;;;-0.89;94.86
71567;BME280;59403;47.456;19.120;2023-12-04T10:50:41;101207.22;;;-0.85;96.74
71567;BME280;59403;47.456;19.120;2023-12-04T10:53:11;101183.19;;;-0.90;95.18
71567;BME280;59403;47.456;19.120;2023-12-04T10:55:39;101202.28;;;-0.71;93.83
71567;BME280;59403;47.456;19.120;2023-12-04T10:58:08;101177.66;;;-0.82;93.09
71567;BME280;59403;47.456;19.120;2023-12-04T11:00:38;101205.53;;;-0.66;94.29
71567;BME280;59403;47.456;19.120;2023-12-04T11:03:07;101194.41;;;-0.69;92.64
71567;BME280;59403;47.456;19.120;2023-12-04T11:05:38;101182.72;;;-0.59;93.79
71567;BME280;59403;47.456;19.120;2023-12-04T11:08:06;101187.62;;;-0.53;90.82
71567;BME280;59403;47.456;19.120;2023-12-04T11:10:40;101176.66;;;-0.60;90.16
71567;BME280;59403;47.456;19.120;2023-12-04T11:13:18;101191.66;;;-0.46;89.60
71567;BME280;59403;47.456;19.120;2023-12-04T11:16:01;101186.44;;;-0.46;90.70
71567;BME280;59403;47.456;19.120;2023-12-04T11:18:35;101178.50;;;-0.43;89.35
71567;BME280;59403;47.456;19.120;2023-12-04T11:21:08;101180.38;;;-0.47;90.90
71567;BME280;59403;47.456;19.120;2023-12-04T11:23:35;101182.50;;;-0.36;90.55
71567;BME280;59403;47.456;19.120;2023-12-04T11:26:08;101172.19;;;-0.38;90.66
71567;BME280;59403;47.456;19.120;2023-12-04T11:31:41;101164.94;;;-0.31;89.84
71567;BME280;59403;47.456;19.120;2023-12-04T11:34:12;101142.72;;;-0.38;90.47
71567;BME280;59403;47.456;19.120;2023-12-04T11:36:41;101159.94;;;-0.36;90.89
71567;BME280;59403;47.456;19.120;2023-12-04T11:39:18;101122.25;;;-0.46;90.27
71567;BME280;59403;47.456;19.120;2023-12-04T11:41:47;101120.84;;;-0.53;90.32
71567;BME280;59403;47.456;19.120;2023-12-04T11:44:14;101139.22;;;-0.37;91.20
71567;BME280;59403;47.456;19.120;2023-12-04T11:46:55;101138.09;;;-0.32;91.81
71567;BME280;59403;47.456;19.120;2023-12-04T11:49:42;101144.63;;;-0.23;90.83
71567;BME280;59403;47.456;19.120;2023-12-04T11:52:10;101135.81;;;-0.21;91.41
71567;BME280;59403;47.456;19.120;2023-12-04T11:54:57;101136.59;;;-0.19;89.84
71567;BME280;59403;47.456;19.120;2023-12-04T11:57:26;101138.84;;;-0.11;89.75
71567;BME280;59403;47.456;19.120;2023-12-04T12:00:08;101131.53;;;-0.03;89.28
71567;BME280;59403;47.456;19.120;2023-12-04T12:03:01;101125.69;;;-0.08;89.52
71567;BME280;59403;47.456;19.120;2023-12-04T12:05:34;101124.72;;;-0.06;89.79
71567;BME280;59403;47.456;19.120;2023-12-04T12:08:05;101120.84;;;0.03;88.95
71567;BME280;59403;47.456;19.120;2023-12-04T12:10:43;101121.19;;;-0.05;87.62
71567;BME280;59403;47.456;19.120;2023-12-04T12:13:14;101111.63;;;-0.04;88.65
71567;BME280;59403;47.456;19.120;2023-12-04T12:15:43;101115.69;;;0.02;89.13
71567;BME280;59403;47.456;19.120;2023-12-04T12:18:13;101101.13;;;-0.03;88.85
71567;BME280;59403;47.456;19.120;2023-12-04T12:20:40;101104.50;;;-0.01;89.04
71567;BME280;59403;47.456;19.120;2023-12-04T12:23:15;101090.38;;;-0.14;90.02
71567;BME280;59403;47.456;19.120;2023-12-04T12:25:52;101085.66;;;-0.06;88.81
71567;BME280;59403;47.456;19.120;2023-12-04T12:28:20;101060.63;;;-0.08;89.11
71567;BME280;59403;47.456;19.120;2023-12-04T12:30:49;101064.53;;;0.00;88.74
71567;BME280;59403;47.456;19.120;2023-12-04T12:33:21;101072.97;;;0.06;89.09
71567;BME280;59403;47.456;19.120;2023-12-04T12:35:59;101063.81;;;0.16;87.58
71567;BME280;59403;47.456;19.120;2023-12-04T12:38:29;101057.81;;;0.14;88.65
71567;BME280;59403;47.456;19.120;2023-12-04T12:41:01;101051.00;;;0.11;89.81
71567;BME280;59403;47.456;19.120;2023-12-04T12:43:44;101056.97;;;0.13;89.18
71567;BME280;59403;47.456;19.120;2023-12-04T12:46:26;101053.44;;;0.14;89.69